sensor_id;sensor_type;location;lat;lon;timestamp;P1;durP1;ratioP1;P2;durP2;ratioP2
71148;SDS011;59072;42.144;25.200;2023-10-19T00:01:13;11.85;;;9.80;;
71148;SDS011;59072;42.144;25.200;2023-10-19T00:03:40;12.30;;;9.67;;
71148;SDS011;59072;42.144;25.200;2023-10-19T00:06:06;12.15;;;9.55;;
71148;SDS011;59072;42.144;25.200;2023-10-19T00:08:34;10.98;;;8.90;;
71148;SDS011;59072;42.144;25.200;2023-10-19T00:11:09;17.70;;;10.73;;
71148;SDS011;59072;42.144;25.200;2023-10-19T00:13:46;46.97;;;11.57;;
71148;SDS011;59072;42.144;25.200;2023-10-19T00:16:15;48.85;;;13.27;;
71148;SDS011;59072;42.144;25.200;2023-10-19T00:18:47;33.28;;;13.07;;
71148;SDS011;59072;42.144;25.200;2023-10-19T00:21:17;29.73;;;12.45;;
71148;SDS011;59072;42.144;25.200;2023-10-19T00:23:50;19.05;;;11.48;;
71148;SDS011;59072;42.144;25.200;2023-10-19T00:26:20;14.35;;;10.70;;
71148;SDS011;59072;42.144;25.200;2023-10-19T00:28:46;11.13;;;9.77;;
71148;SDS011;59072;42.144;25.200;2023-10-19T00:31:18;11.88;;;10.05;;
71148;SDS011;59072;42.144;25.200;2023-10-19T00:33:45;10.93;;;9.70;;
71148;SDS011;59072;42.144;25.200;2023-10-19T00:36:16;12.02;;;9.60;;
71148;SDS011;59072;42.144;25.200;2023-10-19T00:38:45;11.70;;;9.88;;
71148;SDS011;59072;42.144;25.200;2023-10-19T00:41:14;10.32;;;8.82;;
71148;SDS011;59072;42.144;25.200;2023-10-19T00:43:46;11.30;;;9.60;;
71148;SDS011;59072;42.144;25.200;2023-10-19T00:46:17;11.13;;;9.80;;
71148;SDS011;59072;42.144;25.200;2023-10-19T00:51:16;11.25;;;8.70;;
71148;SDS011;59072;42.144;25.200;2023-10-19T00:53:59;10.35;;;8.52;;
71148;SDS011;59072;42.144;25.200;2023-10-19T00:56:32;10.70;;;8.65;;
71148;SDS011;59072;42.144;25.200;2023-10-19T00:58:58;22.08;;;10.13;;
71148;SDS011;59072;42.144;25.200;2023-10-19T01:01:44;20.90;;;10.90;;
71148;SDS011;59072;42.144;25.200;2023-10-19T01:04:13;33.10;;;11.40;;
71148;SDS011;59072;42.144;25.200;2023-10-19T01:06:47;49.67;;;13.02;;
71148;SDS011;59072;42.144;25.200;2023-10-19T01:09:31;36.67;;;12.68;;
71148;SDS011;59072;42.144;25.200;2023-10-19T01:12:04;72.78;;;12.40;;
71148;SDS011;59072;42.144;25.200;2023-10-19T01:15:03;50.42;;;11.13;;
71148;SDS011;59072;42.144;25.200;2023-10-19T01:17:52;75.32;;;12.52;;
71148;SDS011;59072;42.144;25.200;2023-10-19T01:20:19;59.92;;;13.00;;
71148;SDS011;59072;42.144;25.200;2023-10-19T01:22:48;106.45;;;14.25;;
71148;SDS011;59072;42.144;25.200;2023-10-19T01:25:18;52.00;;;11.82;;
71148;SDS011;59072;42.144;25.200;2023-10-19T01:27:49;56.20;;;11.95;;
71148;SDS011;59072;42.144;25.200;2023-10-19T01:30:19;49.50;;;11.73;;
71148;SDS011;59072;42.144;25.200;2023-10-19T01:32:44;39.35;;;11.35;;
71148;SDS011;59072;42.144;25.200;2023-10-19T01:35:10;47.85;;;13.13;;
71148;SDS011;59072;42.144;25.200;2023-10-19T01:37:36;83.60;;;15.18;;
71148;SDS011;59072;42.144;25.200;2023-10-19T01:40:03;107.88;;;15.70;;
71148;SDS011;59072;42.144;25.200;2023-10-19T01:42:29;57.33;;;14.07;;
71148;SDS011;59072;42.144;25.200;2023-10-19T01:44:55;50.65;;;13.88;;
71148;SDS011;59072;42.144;25.200;2023-10-19T01:47:21;95.07;;;15.35;;
71148;SDS011;59072;42.144;25.200;2023-10-19T01:49:47;60.95;;;14.20;;
71148;SDS011;59072;42.144;25.200;2023-10-19T01:52:17;58.20;;;14.68;;
71148;SDS011;59072;42.144;25.200;2023-10-19T01:54:43;65.88;;;16.10;;
71148;SDS011;59072;42.144;25.200;2023-10-19T01:57:08;67.30;;;15.10;;
71148;SDS011;59072;42.144;25.200;2023-10-19T01:59:34;52.35;;;14.48;;
71148;SDS011;59072;42.144;25.200;2023-10-19T02:01:59;103.72;;;17.77;;
71148;SDS011;59072;42.144;25.200;2023-10-19T02:04:25;73.50;;;15.52;;
71148;SDS011;59072;42.144;25.200;2023-10-19T02:06:51;88.55;;;16.60;;
71148;SDS011;59072;42.144;25.200;2023-10-19T02:09:18;142.07;;;19.00;;
71148;SDS011;59072;42.144;25.200;2023-10-19T02:11:52;133.30;;;19.98;;
71148;SDS011;59072;42.144;25.200;2023-10-19T02:14:20;60.05;;;17.70;;
71148;SDS011;59072;42.144;25.200;2023-10-19T02:16:47;75.75;;;15.43;;
71148;SDS011;59072;42.144;25.200;2023-10-19T02:19:17;46.45;;;15.90;;
71148;SDS011;59072;42.144;25.200;2023-10-19T02:21:48;38.22;;;16.15;;
71148;SDS011;59072;42.144;25.200;2023-10-19T02:24:18;36.00;;;15.85;;
71148;SDS011;59072;42.144;25.200;2023-10-19T02:26:44;25.25;;;14.10;;
71148;SDS011;59072;42.144;25.200;2023-10-19T02:29:14;53.72;;;14.85;;
71148;SDS011;59072;42.144;25.200;2023-10-19T02:31:40;49.42;;;14.45;;
71148;SDS011;59072;42.144;25.200;2023-10-19T02:34:10;22.13;;;13.60;;
71148;SDS011;59072;42.144;25.200;2023-10-19T02:36:40;19.73;;;11.98;;
71148;SDS011;59072;42.144;25.200;2023-10-19T02:39:07;28.83;;;10.63;;
71148;SDS011;59072;42.144;25.200;2023-10-19T02:41:38;29.85;;;9.40;;
71148;SDS011;59072;42.144;25.200;2023-10-19T02:44:12;23.58;;;11.93;;
71148;SDS011;59072;42.144;25.200;2023-10-19T02:46:47;23.35;;;10.43;;
71148;SDS011;59072;42.144;25.200;2023-10-19T02:49:19;39.42;;;11.27;;
71148;SDS011;59072;42.144;25.200;2023-10-19T02:51:46;19.17;;;9.57;;
71148;SDS011;59072;42.144;25.200;2023-10-19T02:54:13;26.48;;;9.63;;
71148;SDS011;59072;42.144;25.200;2023-10-19T02:56:47;30.40;;;9.88;;
71148;SDS011;59072;42.144;25.200;2023-10-19T02:59:21;41.08;;;10.02;;
71148;SDS011;59072;42.144;25.200;2023-10-19T03:01:50;69.25;;;13.05;;
71148;SDS011;59072;42.144;25.200;2023-10-19T03:04:26;101.75;;;14.00;;
71148;SDS011;59072;42.144;25.200;2023-10-19T03:06:53;76.57;;;12.67;;
71148;SDS011;59072;42.144;25.200;2023-10-19T03:09:21;87.85;;;14.32;;
71148;SDS011;59072;42.144;25.200;2023-10-19T03:11:53;98.55;;;14.90;;
71148;SDS011;59072;42.144;25.200;2023-10-19T03:14:22;65.22;;;14.90;;
71148;SDS011;59072;42.144;25.200;2023-10-19T03:19:16;54.75;;;12.60;;
71148;SDS011;59072;42.144;25.200;2023-10-19T03:21:41;73.53;;;13.65;;
71148;SDS011;59072;42.144;25.200;2023-10-19T03:24:11;58.85;;;11.68;;
71148;SDS011;59072;42.144;25.200;2023-10-19T03:27:01;47.58;;;11.07;;
71148;SDS011;59072;42.144;25.200;2023-10-19T03:29:43;44.80;;;11.10;;
71148;SDS011;59072;42.144;25.200;2023-10-19T03:32:20;66.25;;;11.68;;
71148;SDS011;59072;42.144;25.200;2023-10-19T03:34:51;44.25;;;12.77;;
71148;SDS011;59072;42.144;25.200;2023-10-19T03:37:24;54.72;;;12.95;;
71148;SDS011;59072;42.144;25.200;2023-10-19T03:39:54;74.25;;;13.43;;
71148;SDS011;59072;42.144;25.200;2023-10-19T03:42:22;53.45;;;13.20;;
71148;SDS011;59072;42.144;25.200;2023-10-19T03:44:51;56.67;;;13.20;;
71148;SDS011;59072;42.144;25.200;2023-10-19T03:47:20;45.65;;;12.65;;
71148;SDS011;59072;42.144;25.200;2023-10-19T03:49:50;46.90;;;11.73;;
71148;SDS011;59072;42.144;25.200;2023-10-19T03:52:15;32.72;;;11.68;;
71148;SDS011;59072;42.144;25.200;2023-10-19T03:54:41;35.60;;;12.32;;
71148;SDS011;59072;42.144;25.200;2023-10-19T03:57:07;41.30;;;12.70;;
71148;SDS011;59072;42.144;25.200;2023-10-19T03:59:40;38.38;;;12.57;;
71148;SDS011;59072;42.144;25.200;2023-10-19T04:02:07;58.85;;;13.25;;
71148;SDS011;59072;42.144;25.200;2023-10-19T04:04:39;30.13;;;11.63;;
71148;SDS011;59072;42.144;25.200;2023-10-19T04:07:08;67.05;;;13.75;;
71148;SDS011;59072;42.144;25.200;2023-10-19T04:09:36;25.52;;;12.63;;
71148;SDS011;59072;42.144;25.200;2023-10-19T04:12:21;38.40;;;12.02;;
71148;SDS011;59072;42.144;25.200;2023-10-19T04:14:47;32.03;;;12.48;;
71148;SDS011;59072;42.144;25.200;2023-10-19T04:17:13;42.08;;;13.30;;
71148;SDS011;59072;42.144;25.200;2023-10-19T04:19:38;33.42;;;13.32;;
71148;SDS011;59072;42.144;25.200;2023-10-19T04:22:04;60.90;;;13.10;;
71148;SDS011;59072;42.144;25.200;2023-10-19T04:24:29;56.08;;;13.13;;
71148;SDS011;59072;42.144;25.200;2023-10-19T04:26:58;36.63;;;11.73;;
71148;SDS011;59072;42.144;25.200;2023-10-19T04:29:24;71.57;;;13.60;;
71148;SDS011;59072;42.144;25.200;2023-10-19T04:31:52;37.00;;;11.65;;
71148;SDS011;59072;42.144;25.200;2023-10-19T04:34:21;50.63;;;13.77;;
71148;SDS011;59072;42.144;25.200;2023-10-19T04:36:47;41.20;;;13.13;;
71148;SDS011;59072;42.144;25.200;2023-10-19T04:39:13;59.80;;;13.18;;
71148;SDS011;59072;42.144;25.200;2023-10-19T04:41:39;35.47;;;12.68;;
71148;SDS011;59072;42.144;25.200;2023-10-19T04:44:05;63.75;;;14.13;;
71148;SDS011;59072;42.144;25.200;2023-10-19T04:46:33;65.75;;;13.98;;
71148;SDS011;59072;42.144;25.200;2023-10-19T04:48:59;73.68;;;14.77;;
71148;SDS011;59072;42.144;25.200;2023-10-19T04:51:24;57.90;;;15.82;;
71148;SDS011;59072;42.144;25.200;2023-10-19T04:53:50;73.57;;;16.95;;
71148;SDS011;59072;42.144;25.200;2023-10-19T04:56:15;65.53;;;15.18;;
71148;SDS011;59072;42.144;25.200;2023-10-19T04:58:41;47.20;;;13.95;;
71148;SDS011;59072;42.144;25.200;2023-10-19T05:01:06;63.78;;;15.60;;
71148;SDS011;59072;42.144;25.200;2023-10-19T05:03:32;44.85;;;13.23;;
71148;SDS011;59072;42.144;25.200;2023-10-19T05:05:58;55.47;;;13.05;;
71148;SDS011;59072;42.144;25.200;2023-10-19T05:08:23;54.38;;;14.65;;
71148;SDS011;59072;42.144;25.200;2023-10-19T05:10:51;36.63;;;14.07;;
71148;SDS011;59072;42.144;25.200;2023-10-19T05:13:18;35.90;;;12.35;;
71148;SDS011;59072;42.144;25.200;2023-10-19T05:15:44;28.55;;;12.18;;
71148;SDS011;59072;42.144;25.200;2023-10-19T05:18:09;30.10;;;12.60;;
71148;SDS011;59072;42.144;25.200;2023-10-19T05:20:35;26.02;;;11.38;;
71148;SDS011;59072;42.144;25.200;2023-10-19T05:23:05;28.25;;;14.15;;
71148;SDS011;59072;42.144;25.200;2023-10-19T05:25:31;39.75;;;15.10;;
71148;SDS011;59072;42.144;25.200;2023-10-19T05:27:57;22.92;;;11.98;;
71148;SDS011;59072;42.144;25.200;2023-10-19T05:30:23;24.90;;;11.10;;
71148;SDS011;59072;42.144;25.200;2023-10-19T05:32:48;24.40;;;11.68;;
71148;SDS011;59072;42.144;25.200;2023-10-19T05:35:15;19.42;;;10.75;;
71148;SDS011;59072;42.144;25.200;2023-10-19T05:37:47;25.85;;;11.18;;
71148;SDS011;59072;42.144;25.200;2023-10-19T05:40:14;22.50;;;12.10;;
71148;SDS011;59072;42.144;25.200;2023-10-19T05:42:40;21.00;;;11.80;;
71148;SDS011;59072;42.144;25.200;2023-10-19T05:45:06;26.33;;;12.45;;
71148;SDS011;59072;42.144;25.200;2023-10-19T05:47:31;22.48;;;12.05;;
71148;SDS011;59072;42.144;25.200;2023-10-19T05:49:57;26.42;;;12.55;;
71148;SDS011;59072;42.144;25.200;2023-10-19T05:52:22;18.65;;;12.02;;
71148;SDS011;59072;42.144;25.200;2023-10-19T05:54:48;36.55;;;13.30;;
71148;SDS011;59072;42.144;25.200;2023-10-19T05:57:14;33.45;;;13.20;;
71148;SDS011;59072;42.144;25.200;2023-10-19T05:59:40;28.75;;;12.05;;
71148;SDS011;59072;42.144;25.200;2023-10-19T06:02:06;40.38;;;13.27;;
71148;SDS011;59072;42.144;25.200;2023-10-19T06:04:32;48.22;;;14.38;;
71148;SDS011;59072;42.144;25.200;2023-10-19T06:06:58;58.60;;;15.90;;
71148;SDS011;59072;42.144;25.200;2023-10-19T06:09:23;38.20;;;15.88;;
71148;SDS011;59072;42.144;25.200;2023-10-19T06:11:54;30.80;;;14.00;;
71148;SDS011;59072;42.144;25.200;2023-10-19T06:14:20;65.20;;;16.05;;
71148;SDS011;59072;42.144;25.200;2023-10-19T06:16:46;39.63;;;15.68;;
71148;SDS011;59072;42.144;25.200;2023-10-19T06:19:11;76.90;;;15.73;;
71148;SDS011;59072;42.144;25.200;2023-10-19T06:21:36;37.17;;;16.17;;
71148;SDS011;59072;42.144;25.200;2023-10-19T06:24:02;100.65;;;20.60;;
71148;SDS011;59072;42.144;25.200;2023-10-19T06:26:28;80.25;;;17.88;;
71148;SDS011;59072;42.144;25.200;2023-10-19T06:28:53;96.65;;;18.30;;
71148;SDS011;59072;42.144;25.200;2023-10-19T06:31:24;40.65;;;17.38;;
71148;SDS011;59072;42.144;25.200;2023-10-19T06:33:50;52.53;;;18.15;;
71148;SDS011;59072;42.144;25.200;2023-10-19T06:36:15;42.60;;;18.30;;
71148;SDS011;59072;42.144;25.200;2023-10-19T06:38:41;37.45;;;17.27;;
71148;SDS011;59072;42.144;25.200;2023-10-19T06:41:13;31.92;;;16.40;;
71148;SDS011;59072;42.144;25.200;2023-10-19T06:43:39;44.38;;;27.92;;
71148;SDS011;59072;42.144;25.200;2023-10-19T06:46:06;38.83;;;17.02;;
71148;SDS011;59072;42.144;25.200;2023-10-19T06:48:31;28.50;;;18.60;;
71148;SDS011;59072;42.144;25.200;2023-10-19T06:50:58;30.00;;;15.95;;
71148;SDS011;59072;42.144;25.200;2023-10-19T06:53:25;21.52;;;14.93;;
71148;SDS011;59072;42.144;25.200;2023-10-19T06:55:50;22.63;;;14.93;;
71148;SDS011;59072;42.144;25.200;2023-10-19T06:58:16;22.02;;;15.70;;
71148;SDS011;59072;42.144;25.200;2023-10-19T07:00:44;22.10;;;16.10;;
71148;SDS011;59072;42.144;25.200;2023-10-19T07:03:10;30.73;;;17.58;;
71148;SDS011;59072;42.144;25.200;2023-10-19T07:05:36;28.55;;;18.90;;
71148;SDS011;59072;42.144;25.200;2023-10-19T07:08:02;30.33;;;19.38;;
71148;SDS011;59072;42.144;25.200;2023-10-19T07:10:29;34.72;;;21.38;;
71148;SDS011;59072;42.144;25.200;2023-10-19T07:12:55;30.02;;;20.00;;
71148;SDS011;59072;42.144;25.200;2023-10-19T07:15:21;33.35;;;22.48;;
71148;SDS011;59072;42.144;25.200;2023-10-19T07:17:49;39.00;;;25.15;;
71148;SDS011;59072;42.144;25.200;2023-10-19T07:20:17;48.72;;;32.35;;
71148;SDS011;59072;42.144;25.200;2023-10-19T07:23:01;39.58;;;26.25;;
71148;SDS011;59072;42.144;25.200;2023-10-19T07:25:47;35.13;;;25.25;;
71148;SDS011;59072;42.144;25.200;2023-10-19T07:28:17;33.50;;;25.17;;
71148;SDS011;59072;42.144;25.200;2023-10-19T07:30:43;39.97;;;27.63;;
71148;SDS011;59072;42.144;25.200;2023-10-19T07:33:09;40.72;;;27.80;;
71148;SDS011;59072;42.144;25.200;2023-10-19T07:35:35;42.63;;;29.05;;
71148;SDS011;59072;42.144;25.200;2023-10-19T07:38:07;38.05;;;26.10;;
71148;SDS011;59072;42.144;25.200;2023-10-19T07:40:36;36.55;;;25.48;;
71148;SDS011;59072;42.144;25.200;2023-10-19T07:43:01;37.15;;;26.17;;
71148;SDS011;59072;42.144;25.200;2023-10-19T07:45:29;33.35;;;24.83;;
71148;SDS011;59072;42.144;25.200;2023-10-19T07:47:56;37.33;;;26.63;;
71148;SDS011;59072;42.144;25.200;2023-10-19T07:50:23;38.80;;;25.73;;
71148;SDS011;59072;42.144;25.200;2023-10-19T07:52:52;37.63;;;26.95;;
71148;SDS011;59072;42.144;25.200;2023-10-19T07:55:19;33.97;;;25.15;;
71148;SDS011;59072;42.144;25.200;2023-10-19T07:57:49;32.55;;;24.55;;
71148;SDS011;59072;42.144;25.200;2023-10-19T08:00:15;35.35;;;25.27;;
71148;SDS011;59072;42.144;25.200;2023-10-19T08:02:42;33.57;;;25.27;;
71148;SDS011;59072;42.144;25.200;2023-10-19T08:07:37;54.13;;;36.58;;
71148;SDS011;59072;42.144;25.200;2023-10-19T08:10:05;31.08;;;22.50;;
71148;SDS011;59072;42.144;25.200;2023-10-19T08:12:34;30.83;;;22.65;;
71148;SDS011;59072;42.144;25.200;2023-10-19T08:15:00;30.40;;;22.85;;
71148;SDS011;59072;42.144;25.200;2023-10-19T08:17:26;30.88;;;22.75;;
71148;SDS011;59072;42.144;25.200;2023-10-19T08:19:51;29.63;;;21.80;;
71148;SDS011;59072;42.144;25.200;2023-10-19T08:22:17;26.42;;;21.27;;
71148;SDS011;59072;42.144;25.200;2023-10-19T08:24:42;38.45;;;28.30;;
71148;SDS011;59072;42.144;25.200;2023-10-19T08:27:08;25.50;;;19.17;;
71148;SDS011;59072;42.144;25.200;2023-10-19T08:29:36;26.30;;;18.80;;
71148;SDS011;59072;42.144;25.200;2023-10-19T08:32:02;21.90;;;17.45;;
71148;SDS011;59072;42.144;25.200;2023-10-19T08:34:27;28.45;;;20.02;;
71148;SDS011;59072;42.144;25.200;2023-10-19T08:36:54;22.50;;;16.52;;
71148;SDS011;59072;42.144;25.200;2023-10-19T08:39:20;20.70;;;15.25;;
71148;SDS011;59072;42.144;25.200;2023-10-19T08:41:46;22.13;;;15.73;;
71148;SDS011;59072;42.144;25.200;2023-10-19T08:44:14;17.33;;;13.38;;
71148;SDS011;59072;42.144;25.200;2023-10-19T08:46:43;19.70;;;14.88;;
71148;SDS011;59072;42.144;25.200;2023-10-19T08:49:13;21.63;;;15.15;;
71148;SDS011;59072;42.144;25.200;2023-10-19T08:51:45;21.20;;;14.77;;
71148;SDS011;59072;42.144;25.200;2023-10-19T08:54:14;23.98;;;17.33;;
71148;SDS011;59072;42.144;25.200;2023-10-19T08:56:40;24.40;;;16.63;;
71148;SDS011;59072;42.144;25.200;2023-10-19T08:59:09;27.15;;;17.23;;
71148;SDS011;59072;42.144;25.200;2023-10-19T09:01:37;24.25;;;15.93;;
71148;SDS011;59072;42.144;25.200;2023-10-19T09:04:03;27.92;;;16.88;;
71148;SDS011;59072;42.144;25.200;2023-10-19T09:06:31;24.70;;;15.25;;
71148;SDS011;59072;42.144;25.200;2023-10-19T09:09:06;27.58;;;16.15;;
71148;SDS011;59072;42.144;25.200;2023-10-19T09:11:39;24.45;;;16.67;;
71148;SDS011;59072;42.144;25.200;2023-10-19T09:14:05;29.88;;;18.52;;
71148;SDS011;59072;42.144;25.200;2023-10-19T09:16:31;27.95;;;18.60;;
71148;SDS011;59072;42.144;25.200;2023-10-19T09:18:57;28.75;;;18.60;;
71148;SDS011;59072;42.144;25.200;2023-10-19T09:21:22;27.83;;;18.08;;
71148;SDS011;59072;42.144;25.200;2023-10-19T09:23:55;25.77;;;17.77;;
71148;SDS011;59072;42.144;25.200;2023-10-19T09:26:22;26.52;;;17.35;;
71148;SDS011;59072;42.144;25.200;2023-10-19T09:28:49;26.23;;;18.45;;
71148;SDS011;59072;42.144;25.200;2023-10-19T09:31:15;24.35;;;17.65;;
71148;SDS011;59072;42.144;25.200;2023-10-19T09:33:42;24.13;;;15.52;;
71148;SDS011;59072;42.144;25.200;2023-10-19T09:36:10;26.38;;;16.83;;
71148;SDS011;59072;42.144;25.200;2023-10-19T09:38:43;27.52;;;18.40;;
71148;SDS011;59072;42.144;25.200;2023-10-19T09:41:11;28.77;;;18.40;;
71148;SDS011;59072;42.144;25.200;2023-10-19T09:43:37;25.17;;;17.90;;
71148;SDS011;59072;42.144;25.200;2023-10-19T09:46:07;26.10;;;18.08;;
71148;SDS011;59072;42.144;25.200;2023-10-19T09:48:40;26.63;;;18.45;;
71148;SDS011;59072;42.144;25.200;2023-10-19T09:51:07;23.77;;;16.63;;
71148;SDS011;59072;42.144;25.200;2023-10-19T09:53:34;26.80;;;16.77;;
71148;SDS011;59072;42.144;25.200;2023-10-19T09:56:00;19.75;;;14.75;;
71148;SDS011;59072;42.144;25.200;2023-10-19T09:58:54;21.90;;;16.58;;
71148;SDS011;59072;42.144;25.200;2023-10-19T10:01:23;22.50;;;15.82;;
71148;SDS011;59072;42.144;25.200;2023-10-19T10:03:50;21.40;;;15.32;;
71148;SDS011;59072;42.144;25.200;2023-10-19T10:06:17;21.67;;;15.73;;
71148;SDS011;59072;42.144;25.200;2023-10-19T10:08:53;23.55;;;15.73;;
71148;SDS011;59072;42.144;25.200;2023-10-19T10:11:24;22.17;;;16.13;;
71148;SDS011;59072;42.144;25.200;2023-10-19T10:13:57;25.40;;;16.17;;
71148;SDS011;59072;42.144;25.200;2023-10-19T10:16:27;23.52;;;16.00;;
71148;SDS011;59072;42.144;25.200;2023-10-19T10:18:59;25.92;;;17.90;;
71148;SDS011;59072;42.144;25.200;2023-10-19T10:21:25;23.17;;;16.13;;
71148;SDS011;59072;42.144;25.200;2023-10-19T10:26:25;22.45;;;15.55;;
71148;SDS011;59072;42.144;25.200;2023-10-19T10:31:53;20.25;;;15.65;;
71148;SDS011;59072;42.144;25.200;2023-10-19T10:37:03;17.75;;;12.30;;
71148;SDS011;59072;42.144;25.200;2023-10-19T10:39:36;16.15;;;11.38;;
71148;SDS011;59072;42.144;25.200;2023-10-19T10:42:03;16.02;;;11.25;;
71148;SDS011;59072;42.144;25.200;2023-10-19T10:44:46;18.65;;;12.43;;
71148;SDS011;59072;42.144;25.200;2023-10-19T10:47:16;15.60;;;9.73;;
71148;SDS011;59072;42.144;25.200;2023-10-19T10:49:47;17.95;;;12.20;;
71148;SDS011;59072;42.144;25.200;2023-10-19T10:52:32;17.60;;;11.43;;
71148;SDS011;59072;42.144;25.200;2023-10-19T10:55:06;14.05;;;9.93;;
71148;SDS011;59072;42.144;25.200;2023-10-19T10:57:36;13.60;;;10.10;;
71148;SDS011;59072;42.144;25.200;2023-10-19T11:00:03;13.23;;;10.05;;
71148;SDS011;59072;42.144;25.200;2023-10-19T11:05:08;13.77;;;9.57;;
71148;SDS011;59072;42.144;25.200;2023-10-19T11:07:37;14.18;;;9.73;;
71148;SDS011;59072;42.144;25.200;2023-10-19T11:10:28;10.40;;;7.88;;
71148;SDS011;59072;42.144;25.200;2023-10-19T11:13:04;13.00;;;8.38;;
71148;SDS011;59072;42.144;25.200;2023-10-19T11:15:32;13.75;;;8.88;;
71148;SDS011;59072;42.144;25.200;2023-10-19T11:17:58;13.18;;;9.13;;
71148;SDS011;59072;42.144;25.200;2023-10-19T11:20:24;12.68;;;9.45;;
71148;SDS011;59072;42.144;25.200;2023-10-19T11:22:52;12.25;;;9.38;;
71148;SDS011;59072;42.144;25.200;2023-10-19T11:25:24;13.88;;;9.43;;
71148;SDS011;59072;42.144;25.200;2023-10-19T11:27:54;10.68;;;8.38;;
71148;SDS011;59072;42.144;25.200;2023-10-19T11:30:24;10.43;;;8.15;;
71148;SDS011;59072;42.144;25.200;2023-10-19T11:32:53;14.13;;;8.35;;
71148;SDS011;59072;42.144;25.200;2023-10-19T11:35:26;12.23;;;8.10;;
71148;SDS011;59072;42.144;25.200;2023-10-19T11:37:55;15.25;;;9.48;;
71148;SDS011;59072;42.144;25.200;2023-10-19T11:40:25;13.05;;;10.15;;
71148;SDS011;59072;42.144;25.200;2023-10-19T11:42:52;12.77;;;7.93;;
71148;SDS011;59072;42.144;25.200;2023-10-19T11:45:21;8.57;;;6.25;;
71148;SDS011;59072;42.144;25.200;2023-10-19T11:47:48;9.38;;;6.78;;
71148;SDS011;59072;42.144;25.200;2023-10-19T11:50:14;13.38;;;6.95;;
71148;SDS011;59072;42.144;25.200;2023-10-19T11:52:44;9.25;;;6.55;;
71148;SDS011;59072;42.144;25.200;2023-10-19T11:55:14;7.82;;;4.90;;
71148;SDS011;59072;42.144;25.200;2023-10-19T11:57:42;7.28;;;5.50;;
71148;SDS011;59072;42.144;25.200;2023-10-19T12:00:09;6.97;;;5.10;;
71148;SDS011;59072;42.144;25.200;2023-10-19T12:02:39;8.88;;;5.97;;
71148;SDS011;59072;42.144;25.200;2023-10-19T12:05:06;7.72;;;5.45;;
71148;SDS011;59072;42.144;25.200;2023-10-19T12:07:38;8.40;;;6.10;;
71148;SDS011;59072;42.144;25.200;2023-10-19T12:10:07;7.97;;;5.18;;
71148;SDS011;59072;42.144;25.200;2023-10-19T12:12:34;7.80;;;5.60;;
71148;SDS011;59072;42.144;25.200;2023-10-19T12:15:00;6.95;;;5.13;;
71148;SDS011;59072;42.144;25.200;2023-10-19T12:17:27;7.57;;;5.30;;
71148;SDS011;59072;42.144;25.200;2023-10-19T12:19:53;9.23;;;5.90;;
71148;SDS011;59072;42.144;25.200;2023-10-19T12:22:19;7.18;;;5.32;;
71148;SDS011;59072;42.144;25.200;2023-10-19T12:24:46;7.18;;;5.03;;
71148;SDS011;59072;42.144;25.200;2023-10-19T12:27:11;8.75;;;5.30;;
71148;SDS011;59072;42.144;25.200;2023-10-19T12:29:38;7.47;;;4.82;;
71148;SDS011;59072;42.144;25.200;2023-10-19T12:32:06;7.88;;;5.43;;
71148;SDS011;59072;42.144;25.200;2023-10-19T12:34:32;6.93;;;4.40;;
71148;SDS011;59072;42.144;25.200;2023-10-19T12:36:58;6.95;;;4.85;;
71148;SDS011;59072;42.144;25.200;2023-10-19T12:39:27;7.78;;;5.00;;
71148;SDS011;59072;42.144;25.200;2023-10-19T12:42:07;7.78;;;4.88;;
71148;SDS011;59072;42.144;25.200;2023-10-19T12:44:33;7.35;;;4.68;;
71148;SDS011;59072;42.144;25.200;2023-10-19T12:47:04;6.18;;;4.68;;
71148;SDS011;59072;42.144;25.200;2023-10-19T12:49:38;6.30;;;4.85;;
71148;SDS011;59072;42.144;25.200;2023-10-19T12:52:09;6.32;;;4.85;;
71148;SDS011;59072;42.144;25.200;2023-10-19T12:54:35;6.18;;;4.80;;
71148;SDS011;59072;42.144;25.200;2023-10-19T12:57:01;7.35;;;5.00;;
71148;SDS011;59072;42.144;25.200;2023-10-19T13:01:54;6.82;;;4.47;;
71148;SDS011;59072;42.144;25.200;2023-10-19T13:04:23;5.75;;;4.70;;
71148;SDS011;59072;42.144;25.200;2023-10-19T13:06:51;6.63;;;5.10;;
71148;SDS011;59072;42.144;25.200;2023-10-19T13:09:24;5.68;;;4.45;;
71148;SDS011;59072;42.144;25.200;2023-10-19T13:11:56;8.38;;;5.05;;
71148;SDS011;59072;42.144;25.200;2023-10-19T13:14:22;6.78;;;5.35;;
71148;SDS011;59072;42.144;25.200;2023-10-19T13:16:48;9.65;;;5.70;;
71148;SDS011;59072;42.144;25.200;2023-10-19T13:19:16;7.18;;;4.93;;
71148;SDS011;59072;42.144;25.200;2023-10-19T13:21:45;7.38;;;4.60;;
71148;SDS011;59072;42.144;25.200;2023-10-19T13:24:14;6.13;;;4.43;;
71148;SDS011;59072;42.144;25.200;2023-10-19T13:26:40;6.15;;;4.65;;
71148;SDS011;59072;42.144;25.200;2023-10-19T13:29:11;7.18;;;4.50;;
71148;SDS011;59072;42.144;25.200;2023-10-19T13:31:36;6.78;;;4.40;;
71148;SDS011;59072;42.144;25.200;2023-10-19T13:34:05;6.85;;;4.38;;
71148;SDS011;59072;42.144;25.200;2023-10-19T13:36:35;6.28;;;4.05;;
71148;SDS011;59072;42.144;25.200;2023-10-19T13:39:01;6.10;;;4.10;;
71148;SDS011;59072;42.144;25.200;2023-10-19T13:43:54;4.68;;;3.55;;
71148;SDS011;59072;42.144;25.200;2023-10-19T13:46:20;6.70;;;3.97;;
71148;SDS011;59072;42.144;25.200;2023-10-19T13:48:48;5.13;;;3.90;;
71148;SDS011;59072;42.144;25.200;2023-10-19T13:51:15;5.30;;;3.80;;
71148;SDS011;59072;42.144;25.200;2023-10-19T13:53:44;5.25;;;3.60;;
71148;SDS011;59072;42.144;25.200;2023-10-19T13:56:12;5.00;;;4.20;;
71148;SDS011;59072;42.144;25.200;2023-10-19T13:58:39;5.00;;;3.67;;
71148;SDS011;59072;42.144;25.200;2023-10-19T14:01:08;5.63;;;3.78;;
71148;SDS011;59072;42.144;25.200;2023-10-19T14:03:35;7.00;;;3.80;;
71148;SDS011;59072;42.144;25.200;2023-10-19T14:06:02;6.93;;;3.88;;
71148;SDS011;59072;42.144;25.200;2023-10-19T14:08:28;5.40;;;4.03;;
71148;SDS011;59072;42.144;25.200;2023-10-19T14:10:53;5.82;;;3.90;;
71148;SDS011;59072;42.144;25.200;2023-10-19T14:13:19;8.25;;;5.85;;
71148;SDS011;59072;42.144;25.200;2023-10-19T14:15:44;5.82;;;4.10;;
71148;SDS011;59072;42.144;25.200;2023-10-19T14:18:12;7.05;;;5.13;;
71148;SDS011;59072;42.144;25.200;2023-10-19T14:20:38;10.95;;;7.07;;
71148;SDS011;59072;42.144;25.200;2023-10-19T14:23:05;11.10;;;4.55;;
71148;SDS011;59072;42.144;25.200;2023-10-19T14:25:31;4.85;;;3.70;;
71148;SDS011;59072;42.144;25.200;2023-10-19T14:28:01;5.20;;;3.80;;
71148;SDS011;59072;42.144;25.200;2023-10-19T14:30:27;5.57;;;3.95;;
71148;SDS011;59072;42.144;25.200;2023-10-19T14:32:56;6.43;;;3.40;;
71148;SDS011;59072;42.144;25.200;2023-10-19T14:35:22;4.95;;;3.28;;
71148;SDS011;59072;42.144;25.200;2023-10-19T14:37:49;5.07;;;3.28;;
71148;SDS011;59072;42.144;25.200;2023-10-19T14:40:19;9.07;;;3.95;;
71148;SDS011;59072;42.144;25.200;2023-10-19T14:42:47;5.28;;;3.53;;
71148;SDS011;59072;42.144;25.200;2023-10-19T14:45:14;6.18;;;3.72;;
71148;SDS011;59072;42.144;25.200;2023-10-19T14:47:47;7.65;;;4.70;;